Time;durP1;ratioP1;P1;durP2;ratioP2;P2;SDS_P1;SDS_P2;PMS_P1;PMS_P2;Temp;Humidity;BMP_temperature;BMP_pressure;BME280_temperature;BME280_humidity;BME280_pressure;Samples;Min_cycle;Max_cycle;Signal;HPM_P1;HPM_P2
2023/02/05 00:02:16;;;;;;;32.75;11.40;;;9.00;99.90;;;;;;4982243;28;20426;-87
2023/02/05 00:04:41;;;;;;;28.75;11.20;;;9.00;99.90;;;;;;4997761;28;20045;-86
2023/02/05 00:07:08;;;;;;;29.63;11.88;;;9.00;99.90;;;;;;4982316;28;20044;-87
2023/02/05 00:09:35;;;;;;;33.10;12.27;;;9.00;99.90;;;;;;4981420;28;20049;-87
2023/02/05 00:12:01;;;;;;;28.48;12.40;;;9.00;99.90;;;;;;4981786;28;20487;-87
2023/02/05 00:14:26;;;;;;;35.92;14.07;;;9.00;99.90;;;;;;5014996;28;20040;-85
2023/02/05 00:16:52;;;;;;;35.08;12.68;;;9.00;99.90;;;;;;4981294;28;20037;-85
2023/02/05 00:19:18;;;;;;;33.42;12.93;;;9.00;99.90;;;;;;4997106;28;20025;-87
2023/02/05 00:21:44;;;;;;;30.85;13.50;;;9.00;99.90;;;;;;4997536;28;20050;-87
2023/02/05 00:24:11;;;;;;;32.90;12.82;;;9.00;99.90;;;;;;5014836;28;20085;-84
2023/02/05 00:26:37;;;;;;;32.70;12.55;;;8.90;99.90;;;;;;4997453;28;20088;-84
2023/02/05 00:29:03;;;;;;;30.20;13.20;;;8.90;99.90;;;;;;5013720;28;20026;-87
2023/02/05 00:31:29;;;;;;;32.65;12.52;;;8.90;99.90;;;;;;4997041;28;20037;-87
2023/02/05 00:33:57;;;;;;;39.65;14.20;;;8.90;99.90;;;;;;4997577;28;20491;-87
2023/02/05 00:36:23;;;;;;;34.47;13.38;;;8.90;99.90;;;;;;5013638;28;20034;-87
2023/02/05 00:38:50;;;;;;;44.97;13.18;;;8.90;99.90;;;;;;4997405;28;20463;-85
2023/02/05 00:41:17;;;;;;;35.08;13.68;;;9.00;99.90;;;;;;4996780;28;20046;-87
2023/02/05 00:43:43;;;;;;;42.35;15.10;;;9.00;99.90;;;;;;4996729;28;20117;-87
2023/02/05 00:46:09;;;;;;;35.33;14.05;;;9.00;99.90;;;;;;4980448;28;20387;-87
2023/02/05 00:48:35;;;;;;;36.03;13.23;;;9.00;99.90;;;;;;4980475;28;20080;-87
2023/02/05 00:51:02;;;;;;;38.20;14.95;;;9.00;99.90;;;;;;5012949;28;20057;-87
2023/02/05 00:53:28;;;;;;;44.30;16.52;;;9.00;99.90;;;;;;5013913;28;20038;-87
2023/02/05 00:55:53;;;;;;;45.15;18.10;;;8.90;99.90;;;;;;5013784;28;20037;-88
2023/02/05 00:58:19;;;;;;;45.08;20.08;;;8.90;99.90;;;;;;5019799;28;20040;-87
2023/02/05 01:00:45;;;;;;;39.45;18.38;;;9.00;99.90;;;;;;4983208;28;20479;-87
2023/02/05 01:03:11;;;;;;;44.78;18.30;;;9.00;99.90;;;;;;5007229;28;20010;-87
2023/02/05 01:05:38;;;;;;;48.33;18.33;;;9.00;99.90;;;;;;4999424;28;20470;-87
2023/02/05 01:08:06;;;;;;;47.33;18.05;;;9.00;99.90;;;;;;5024069;28;20044;-87
2023/02/05 01:10:32;;;;;;;55.08;19.80;;;9.00;99.90;;;;;;5018346;28;20057;-87
2023/02/05 01:12:58;;;;;;;53.17;20.13;;;9.00;99.90;;;;;;4973462;28;20038;-87
2023/02/05 01:15:24;;;;;;;59.75;20.50;;;9.00;99.90;;;;;;4968504;28;20046;-93
2023/02/05 01:17:50;;;;;;;58.22;21.15;;;9.00;99.90;;;;;;4980606;28;20092;-92
2023/02/05 01:20:16;;;;;;;56.55;22.77;;;9.00;99.90;;;;;;4964776;28;20042;-92
2023/02/05 01:22:42;;;;;;;69.40;22.83;;;9.10;99.90;;;;;;4997240;28;20038;-94
2023/02/05 01:25:08;;;;;;;63.53;23.00;;;9.10;99.90;;;;;;4996330;28;20471;-93
2023/02/05 01:27:34;;;;;;;62.35;24.27;;;9.10;99.90;;;;;;4996471;28;20036;-92
2023/02/05 01:30:00;;;;;;;65.28;24.73;;;9.10;99.90;;;;;;4996518;28;20030;-92
2023/02/05 01:32:28;;;;;;;62.78;23.98;;;9.10;99.90;;;;;;4979644;28;20505;-83
2023/02/05 01:34:53;;;;;;;70.22;25.27;;;9.10;99.90;;;;;;4995518;28;20033;-85
2023/02/05 01:37:19;;;;;;;69.80;26.20;;;9.10;99.90;;;;;;4995333;28;20030;-83
2023/02/05 01:39:45;;;;;;;66.97;26.42;;;9.20;99.90;;;;;;4978970;28;20034;-83
2023/02/05 01:42:50;;;;;;;68.63;25.52;;;9.20;99.90;;;;;;5132639;27;20374;-84
2023/02/05 01:45:22;;;;;;;67.78;26.48;;;9.20;99.90;;;;;;5097264;28;20059;-84
2023/02/05 01:47:53;;;;;;;76.03;26.60;;;9.20;99.90;;;;;;5113644;28;20572;-86
2023/02/05 01:50:46;;;;;;;65.50;26.15;;;9.20;99.90;;;;;;5113854;28;20049;-86
2023/02/05 01:53:20;;;;;;;65.78;24.90;;;9.20;99.90;;;;;;5128728;28;20035;-86
2023/02/05 01:56:00;;;;;;;67.13;25.85;;;9.20;99.90;;;;;;5113873;28;20026;-86
2023/02/05 01:58:31;;;;;;;68.45;26.50;;;9.10;99.90;;;;;;5132382;28;20024;-86
2023/02/05 02:00:57;;;;;;;68.63;27.73;;;9.20;99.90;;;;;;5113459;28;20446;-86
2023/02/05 02:03:26;;;;;;;61.63;27.17;;;9.10;99.90;;;;;;5113669;28;20341;-86
2023/02/05 02:05:53;;;;;;;63.72;27.75;;;9.20;99.90;;;;;;5113227;28;20066;-85
2023/02/05 02:08:19;;;;;;;69.82;28.67;;;9.20;99.90;;;;;;5113441;28;20076;-84
2023/02/05 02:10:46;;;;;;;60.58;27.50;;;9.20;99.90;;;;;;5112742;28;20476;-84
2023/02/05 02:13:12;;;;;;;57.25;25.75;;;9.20;99.90;;;;;;5095319;28;20127;-84
2023/02/05 02:15:39;;;;;;;65.47;27.77;;;9.10;99.90;;;;;;5113415;28;20487;-85
2023/02/05 02:18:25;;;;;;;61.42;27.38;;;9.20;99.90;;;;;;5112978;28;20026;-84
2023/02/05 02:21:25;;;;;;;73.97;29.85;;;9.10;99.90;;;;;;5113105;28;20016;-84
2023/02/05 02:24:28;;;;;;;63.00;27.23;;;9.10;99.90;;;;;;5113392;28;20019;-85
2023/02/05 02:27:21;;;;;;;63.45;28.60;;;9.10;99.90;;;;;;5112686;28;20110;-85
2023/02/05 02:30:13;;;;;;;58.60;27.45;;;9.10;99.90;;;;;;5113116;28;20050;-85
2023/02/05 02:32:55;;;;;;;60.08;30.13;;;9.10;99.90;;;;;;5131098;28;20059;-85
2023/02/05 02:35:43;;;;;;;60.38;27.95;;;9.10;99.90;;;;;;5112767;28;20026;-85
2023/02/05 02:38:52;;;;;;;63.63;29.73;;;9.10;99.90;;;;;;5131247;28;20024;-88
2023/02/05 02:41:26;;;;;;;59.15;27.95;;;9.10;99.90;;;;;;5113012;28;20422;-88
2023/02/05 02:44:00;;;;;;;63.50;28.83;;;9.10;99.90;;;;;;5113269;28;20054;-88
2023/02/05 02:46:44;;;;;;;65.10;30.50;;;9.10;99.90;;;;;;5131382;28;20019;-88
2023/02/05 02:49:22;;;;;;;72.57;31.60;;;9.10;99.90;;;;;;5112790;28;20047;-88
2023/02/05 02:51:49;;;;;;;85.00;35.05;;;9.10;99.90;;;;;;5131563;28;20046;-88
2023/02/05 02:54:17;;;;;;;85.80;32.83;;;9.10;99.90;;;;;;5102340;28;20027;-85
2023/02/05 02:56:46;;;;;;;87.68;33.92;;;9.10;99.90;;;;;;5098735;28;20384;-85
2023/02/05 02:59:16;;;;;;;83.10;36.10;;;9.00;99.90;;;;;;5098907;28;20026;-85
2023/02/05 03:01:45;;;;;;;71.57;33.05;;;9.10;99.90;;;;;;5116812;28;20024;-85
2023/02/05 03:04:18;;;;;;;66.40;32.38;;;9.10;99.90;;;;;;5098354;28;20107;-85
2023/02/05 03:06:48;;;;;;;70.90;32.42;;;9.10;99.90;;;;;;5098708;28;20106;-85
2023/02/05 03:09:22;;;;;;;71.72;32.88;;;9.10;99.90;;;;;;5098467;28;20362;-85
2023/02/05 03:11:48;;;;;;;67.65;31.55;;;9.10;99.90;;;;;;5098586;28;20061;-87
2023/02/05 03:14:13;;;;;;;65.25;30.00;;;9.10;99.90;;;;;;5065206;28;20059;-87
2023/02/05 03:16:39;;;;;;;61.95;29.33;;;9.10;99.90;;;;;;5081634;28;20027;-87
2023/02/05 03:19:05;;;;;;;62.83;29.58;;;9.10;99.90;;;;;;5117079;28;20041;-87
2023/02/05 03:21:54;;;;;;;57.13;27.55;;;9.10;99.90;;;;;;5081682;28;20126;-87
2023/02/05 03:24:20;;;;;;;51.92;26.92;;;9.10;99.90;;;;;;5116649;28;20020;-87
2023/02/05 03:26:46;;;;;;;62.50;29.40;;;9.10;99.90;;;;;;5098549;28;20024;-87
2023/02/05 03:29:16;;;;;;;55.10;28.08;;;9.10;99.90;;;;;;5082192;28;20036;-93
2023/02/05 03:32:13;;;;;;;54.83;26.88;;;9.10;99.90;;;;;;5099091;28;20122;-94
2023/02/05 03:34:50;;;;;;;55.50;26.35;;;9.10;99.90;;;;;;5099190;28;20027;-93
2023/02/05 03:37:47;;;;;;;54.25;27.40;;;9.10;99.90;;;;;;5099169;28;20413;-93
2023/02/05 03:40:29;;;;;;;55.55;26.85;;;9.10;99.90;;;;;;5098921;28;20391;-93
2023/02/05 03:43:39;;;;;;;49.65;26.00;;;9.10;99.90;;;;;;5098949;28;20073;-92
2023/02/05 03:46:26;;;;;;;53.63;25.90;;;9.10;99.90;;;;;;5037716;28;20020;-93
2023/02/05 03:48:58;;;;;;;50.53;25.05;;;9.10;99.90;;;;;;5038040;28;20032;-93
2023/02/05 03:51:30;;;;;;;46.40;25.02;;;9.10;99.90;;;;;;5080405;28;20146;-93
2023/02/05 03:54:19;;;;;;;48.80;24.75;;;9.00;99.90;;;;;;5099153;28;20050;-93
2023/02/05 03:57:02;;;;;;;46.05;23.75;;;9.00;99.90;;;;;;5098638;28;20031;-93
2023/02/05 03:59:29;;;;;;;48.80;24.08;;;9.10;99.90;;;;;;5099081;28;20404;-92
2023/02/05 04:01:55;;;;;;;47.78;24.13;;;9.00;99.90;;;;;;5064746;28;20020;-88
2023/02/05 04:04:21;;;;;;;44.20;22.95;;;9.00;99.90;;;;;;5080573;28;20027;-88
2023/02/05 04:06:50;;;;;;;40.20;21.45;;;9.00;99.90;;;;;;5080876;28;20026;-89
2023/02/05 04:09:15;;;;;;;42.20;22.42;;;9.00;99.90;;;;;;5098198;28;20030;-88
2023/02/05 04:11:41;;;;;;;46.15;21.70;;;9.00;99.90;;;;;;5097967;28;20027;-89
2023/02/05 04:14:06;;;;;;;41.20;21.73;;;9.00;99.90;;;;;;5081030;28;20062;-88
2023/02/05 04:16:32;;;;;;;32.55;18.77;;;9.00;99.90;;;;;;5064138;28;20375;-94
2023/02/05 04:18:58;;;;;;;38.17;20.17;;;9.00;99.90;;;;;;5082322;28;20027;-88
2023/02/05 04:21:24;;;;;;;38.80;20.05;;;9.00;99.90;;;;;;5115571;28;20039;-88
2023/02/05 04:23:49;;;;;;;39.45;19.85;;;9.00;99.90;;;;;;5063866;28;20028;-88
2023/02/05 04:26:15;;;;;;;39.88;18.95;;;9.00;99.90;;;;;;5080534;28;20024;-88
2023/02/05 04:28:41;;;;;;;36.42;18.65;;;9.00;99.90;;;;;;5080807;28;20051;-88
2023/02/05 04:31:08;;;;;;;34.85;19.30;;;9.00;99.90;;;;;;5080502;28;20122;-87
2023/02/05 04:33:33;;;;;;;36.08;19.23;;;9.00;99.90;;;;;;5080651;28;20023;-89
2023/02/05 04:35:59;;;;;;;33.15;18.27;;;9.00;99.90;;;;;;5080055;28;20028;-85
2023/02/05 04:38:26;;;;;;;32.92;17.25;;;8.90;99.90;;;;;;5096806;28;20039;-85
2023/02/05 04:40:51;;;;;;;34.20;18.27;;;8.90;99.90;;;;;;5096691;28;20139;-85
2023/02/05 04:43:17;;;;;;;33.60;17.55;;;8.90;99.90;;;;;;5096819;28;20115;-85
2023/02/05 04:45:43;;;;;;;31.40;16.95;;;8.90;99.90;;;;;;5063071;28;20480;-85
2023/02/05 04:48:09;;;;;;;33.03;17.35;;;8.90;99.90;;;;;;5096499;28;20537;-85
2023/02/05 04:50:36;;;;;;;33.03;17.80;;;8.90;99.90;;;;;;5096570;28;20081;-85
2023/02/05 04:53:01;;;;;;;31.27;17.30;;;8.90;99.90;;;;;;5079968;28;20016;-85
2023/02/05 04:55:28;;;;;;;34.67;15.98;;;8.90;99.90;;;;;;5062839;28;20518;-85
2023/02/05 04:57:54;;;;;;;31.13;15.85;;;8.90;99.90;;;;;;5079867;28;20371;-85
2023/02/05 05:00:19;;;;;;;31.98;16.75;;;8.90;99.90;;;;;;5096392;28;20111;-85
2023/02/05 05:02:45;;;;;;;29.52;16.45;;;8.90;99.90;;;;;;5079439;28;20127;-85
2023/02/05 05:05:11;;;;;;;33.53;17.67;;;8.90;99.90;;;;;;5079497;28;20080;-85
2023/02/05 05:07:37;;;;;;;28.50;15.02;;;8.90;99.90;;;;;;5062890;28;20045;-87
2023/02/05 05:10:06;;;;;;;32.58;16.08;;;8.80;99.90;;;;;;5079760;28;20062;-87
2023/02/05 05:12:33;;;;;;;29.35;15.32;;;8.80;99.90;;;;;;5081026;28;20027;-87
2023/02/05 05:14:58;;;;;;;27.92;15.30;;;8.80;99.90;;;;;;5096666;28;20489;-87
2023/02/05 05:17:24;;;;;;;26.70;14.73;;;8.80;99.90;;;;;;5096588;28;20057;-87
2023/02/05 05:19:50;;;;;;;29.98;15.82;;;8.80;99.90;;;;;;5096442;28;20110;-87
2023/02/05 05:22:16;;;;;;;25.55;15.57;;;8.80;99.90;;;;;;5079616;28;20123;-87
2023/02/05 05:24:42;;;;;;;29.45;15.32;;;8.80;99.90;;;;;;5080729;28;20180;-94
2023/02/05 05:27:08;;;;;;;28.75;15.82;;;8.70;99.90;;;;;;5063300;28;20108;-93
2023/02/05 05:29:34;;;;;;;27.67;14.85;;;8.80;99.90;;;;;;5080177;28;20042;-92
2023/02/05 05:32:00;;;;;;;26.02;15.43;;;8.80;99.90;;;;;;5096802;28;20027;-94
2023/02/05 05:34:26;;;;;;;27.23;15.23;;;8.70;99.90;;;;;;5079946;28;20024;-93
2023/02/05 05:36:52;;;;;;;31.60;16.35;;;8.70;99.90;;;;;;5096805;28;20015;-94
2023/02/05 05:44:50;;;;;;;28.70;16.20;;;8.60;99.90;;;;;;5099338;28;20085;-87
2023/02/05 05:47:17;;;;;;;30.17;17.05;;;8.60;99.90;;;;;;5079843;28;20024;-87
2023/02/05 05:49:43;;;;;;;31.83;16.52;;;8.60;99.90;;;;;;5079924;28;20043;-87
2023/02/05 05:52:09;;;;;;;32.67;17.63;;;8.60;99.90;;;;;;5096056;28;20019;-87
2023/02/05 05:54:34;;;;;;;28.70;16.33;;;8.60;99.90;;;;;;5096268;28;20031;-87
2023/02/05 05:57:00;;;;;;;30.35;16.98;;;8.60;99.90;;;;;;5079389;28;20024;-87
2023/02/05 05:59:26;;;;;;;32.33;17.77;;;8.60;99.90;;;;;;5087493;28;20027;-88
2023/02/05 06:01:52;;;;;;;31.70;17.10;;;8.60;99.90;;;;;;5099275;28;20066;-88
2023/02/05 06:04:17;;;;;;;30.52;16.90;;;8.60;99.90;;;;;;5075516;28;20126;-88
2023/02/05 06:06:43;;;;;;;25.92;16.20;;;8.60;99.90;;;;;;5096630;28;20043;-88
2023/02/05 06:09:09;;;;;;;32.22;15.90;;;8.60;99.90;;;;;;5097228;28;20023;-88
2023/02/05 06:11:34;;;;;;;26.48;13.20;;;8.60;99.90;;;;;;5096386;28;20023;-88
2023/02/05 06:14:00;;;;;;;23.85;12.95;;;8.50;99.90;;;;;;5079761;28;20028;-88
2023/02/05 06:16:26;;;;;;;19.85;12.55;;;8.50;99.90;;;;;;5096043;28;20111;-87
2023/02/05 06:18:52;;;;;;;18.73;11.50;;;8.50;99.90;;;;;;5079289;28;20020;-88
2023/02/05 06:21:18;;;;;;;18.75;10.82;;;8.50;99.90;;;;;;5096311;28;20027;-87
2023/02/05 06:23:43;;;;;;;20.33;9.45;;;8.50;99.90;;;;;;5114192;28;20532;-88
2023/02/05 06:26:09;;;;;;;16.38;9.15;;;8.50;99.90;;;;;;5095892;28;20063;-87
2023/02/05 06:28:35;;;;;;;15.80;8.43;;;8.50;99.90;;;;;;5064217;28;20031;-87
2023/02/05 06:31:00;;;;;;;11.52;5.32;;;8.50;99.90;;;;;;5066036;28;20091;-85
2023/02/05 06:33:26;;;;;;;6.68;2.70;;;8.40;99.90;;;;;;5068712;28;20032;-85
2023/02/05 06:35:52;;;;;;;7.72;2.17;;;8.40;99.90;;;;;;5099172;28;20118;-85
2023/02/05 06:38:17;;;;;;;12.02;1.92;;;8.30;99.90;;;;;;5099543;28;20550;-85
2023/02/05 06:40:43;;;;;;;11.85;1.90;;;8.30;99.90;;;;;;5065705;28;20197;-86
2023/02/05 06:43:09;;;;;;;15.57;1.95;;;8.20;99.90;;;;;;5099301;28;20469;-85
2023/02/05 06:45:35;;;;;;;14.60;1.60;;;8.20;99.90;;;;;;5099418;28;20047;-85
2023/02/05 06:48:00;;;;;;;11.45;1.73;;;8.10;99.90;;;;;;5081963;28;20024;-85
2023/02/05 06:50:26;;;;;;;12.13;1.63;;;8.10;99.90;;;;;;5065306;28;20024;-86
2023/02/05 06:52:54;;;;;;;13.88;1.98;;;8.00;99.90;;;;;;5098858;28;20024;-85
2023/02/05 06:55:20;;;;;;;11.27;1.70;;;8.00;99.90;;;;;;5098680;28;20027;-85
2023/02/05 06:57:46;;;;;;;8.98;1.80;;;7.90;99.90;;;;;;5098844;28;20441;-85
2023/02/05 07:00:12;;;;;;;11.20;2.00;;;7.90;99.90;;;;;;5065214;28;20028;-86
2023/02/05 07:02:38;;;;;;;14.13;1.58;;;7.90;99.90;;;;;;5098728;28;20019;-86
2023/02/05 07:05:04;;;;;;;9.48;1.65;;;7.90;99.90;;;;;;5098924;28;20383;-92
2023/02/05 07:07:32;;;;;;;8.60;1.23;;;7.80;99.90;;;;;;5099735;28;20020;-92
2023/02/05 07:09:58;;;;;;;11.80;1.88;;;7.90;99.90;;;;;;5082710;28;20380;-92
2023/02/05 07:12:23;;;;;;;9.23;1.40;;;7.80;99.90;;;;;;5099300;28;20016;-93
2023/02/05 07:14:49;;;;;;;7.97;1.73;;;7.80;99.90;;;;;;5082970;28;20610;-93
2023/02/05 07:17:15;;;;;;;15.32;1.50;;;7.80;99.90;;;;;;5065920;28;20027;-92
2023/02/05 07:19:40;;;;;;;10.60;1.40;;;7.70;99.90;;;;;;5082710;28;20042;-91
2023/02/05 07:22:06;;;;;;;13.35;1.55;;;7.70;99.90;;;;;;5069868;28;20027;-88
2023/02/05 07:24:32;;;;;;;10.93;1.48;;;7.70;99.90;;;;;;5074818;28;20456;-87
2023/02/05 07:26:57;;;;;;;9.98;1.77;;;7.70;99.90;;;;;;5087344;28;20022;-88
2023/02/05 07:29:23;;;;;;;10.70;1.60;;;7.70;99.90;;;;;;5110553;28;20023;-88
2023/02/05 07:31:50;;;;;;;11.20;1.65;;;7.70;99.90;;;;;;5102153;28;20012;-88
2023/02/05 07:34:16;;;;;;;11.10;1.27;;;7.70;99.90;;;;;;5105236;28;20016;-88
2023/02/05 07:36:42;;;;;;;13.38;1.48;;;7.70;99.90;;;;;;5115800;28;20059;-89
2023/02/05 07:39:07;;;;;;;15.93;1.52;;;7.70;99.90;;;;;;5082500;28;20031;-92
2023/02/05 07:41:33;;;;;;;11.77;1.63;;;7.60;99.90;;;;;;5081821;28;20043;-92
2023/02/05 07:43:59;;;;;;;11.00;1.70;;;7.60;99.90;;;;;;5117504;28;20528;-93
2023/02/05 07:46:25;;;;;;;9.95;1.58;;;7.60;99.90;;;;;;5082379;28;20114;-93
2023/02/05 07:48:50;;;;;;;15.38;1.90;;;7.60;99.90;;;;;;5082264;28;20108;-93
2023/02/05 07:51:22;;;;;;;8.75;1.60;;;7.60;99.90;;;;;;5082312;28;20495;-93
2023/02/05 07:53:48;;;;;;;13.82;2.13;;;7.60;99.90;;;;;;5098987;28;20531;-93
2023/02/05 07:56:14;;;;;;;16.70;2.13;;;7.60;99.90;;;;;;5081398;28;20059;-88
2023/02/05 07:58:40;;;;;;;20.75;1.95;;;7.70;99.90;;;;;;5098210;28;20015;-87
2023/02/05 08:01:06;;;;;;;16.17;2.00;;;7.60;99.90;;;;;;5116135;28;20032;-88
2023/02/05 08:03:32;;;;;;;14.73;1.95;;;7.60;99.90;;;;;;5082264;28;20023;-87
2023/02/05 08:05:58;;;;;;;18.80;2.63;;;7.70;99.90;;;;;;5080985;28;20020;-87
2023/02/05 08:08:24;;;;;;;14.77;2.83;;;7.70;99.90;;;;;;5116238;28;20053;-87
2023/02/05 08:11:12;;;;;;;15.20;2.28;;;7.70;99.90;;;;;;5081126;28;20031;-92
2023/02/05 08:13:38;;;;;;;11.73;1.60;;;7.60;99.90;;;;;;5098260;28;20457;-93
2023/02/05 08:16:05;;;;;;;15.20;2.20;;;7.60;99.90;;;;;;5064700;28;20031;-93
2023/02/05 08:18:31;;;;;;;21.38;2.40;;;7.60;99.90;;;;;;5081051;28;20496;-92
2023/02/05 08:20:56;;;;;;;25.80;2.97;;;7.70;99.90;;;;;;5065790;28;20035;-92
2023/02/05 08:23:22;;;;;;;20.60;2.05;;;7.60;99.90;;;;;;5066451;28;20388;-93
2023/02/05 08:25:55;;;;;;;22.83;3.13;;;7.70;99.90;;;;;;5083661;28;20030;-93
2023/02/05 08:28:22;;;;;;;21.65;3.88;;;7.60;99.90;;;;;;5081964;28;20023;-87
2023/02/05 08:30:48;;;;;;;19.63;2.65;;;7.60;99.90;;;;;;5115261;28;20384;-86
2023/02/05 08:33:14;;;;;;;22.45;2.50;;;7.60;99.90;;;;;;5079987;28;20069;-86
2023/02/05 08:35:39;;;;;;;23.33;2.50;;;7.70;99.90;;;;;;5096866;28;20472;-86
2023/02/05 08:38:05;;;;;;;23.80;2.90;;;7.60;99.90;;;;;;5115406;28;20107;-94
2023/02/05 08:40:31;;;;;;;23.73;3.55;;;7.60;99.90;;;;;;5080612;28;20024;-92
2023/02/05 08:42:59;;;;;;;17.65;3.00;;;7.70;99.90;;;;;;5064030;28;20118;-92
2023/02/05 08:45:27;;;;;;;14.88;2.58;;;7.60;99.90;;;;;;5065260;28;20020;-92
2023/02/05 08:47:54;;;;;;;19.25;2.80;;;7.60;99.90;;;;;;5083404;28;20112;-93
2023/02/05 08:50:21;;;;;;;28.27;2.53;;;7.60;99.90;;;;;;5098517;28;20050;-93
2023/02/05 08:52:48;;;;;;;19.73;3.10;;;7.70;99.90;;;;;;5098962;28;20023;-91
2023/02/05 08:55:14;;;;;;;15.65;2.50;;;7.70;99.90;;;;;;5081987;28;20028;-92
2023/02/05 08:57:40;;;;;;;28.35;4.03;;;7.70;99.90;;;;;;5097583;28;20040;-92
2023/02/05 09:00:07;;;;;;;25.65;3.60;;;7.70;99.90;;;;;;5080902;28;20032;-93
2023/02/05 09:02:32;;;;;;;19.20;2.70;;;7.70;99.90;;;;;;5063896;28;20122;-87
2023/02/05 09:04:58;;;;;;;15.13;2.50;;;7.70;99.90;;;;;;5063617;28;20444;-87
2023/02/05 09:07:24;;;;;;;19.83;2.67;;;7.70;99.90;;;;;;5097038;28;20028;-88
2023/02/05 09:09:50;;;;;;;22.92;3.33;;;7.70;99.90;;;;;;5080002;28;20464;-87
2023/02/05 09:12:16;;;;;;;27.08;3.45;;;7.70;99.90;;;;;;5080616;28;20477;-88
2023/02/05 09:14:42;;;;;;;29.95;3.95;;;7.70;99.90;;;;;;5080891;28;20027;-87
2023/02/05 09:17:09;;;;;;;28.92;3.90;;;7.70;99.90;;;;;;5118194;28;20072;-88
2023/02/05 09:19:36;;;;;;;39.22;4.32;;;7.70;99.90;;;;;;5117522;28;20098;-87
2023/02/05 09:22:02;;;;;;;19.13;2.67;;;7.70;99.90;;;;;;5098804;28;20054;-88
2023/02/05 09:24:28;;;;;;;20.20;2.97;;;7.70;99.90;;;;;;5115323;28;20015;-88
2023/02/05 09:26:54;;;;;;;29.02;3.30;;;7.70;99.90;;;;;;5100049;28;20026;-88
2023/02/05 09:29:20;;;;;;;24.25;3.25;;;7.70;99.90;;;;;;5096762;28;20119;-88
2023/02/05 09:31:46;;;;;;;25.15;3.25;;;7.80;99.90;;;;;;5063034;28;20031;-88
2023/02/05 09:34:12;;;;;;;30.70;3.83;;;7.80;99.90;;;;;;5096567;28;20023;-86
2023/02/05 09:36:39;;;;;;;36.83;6.13;;;7.80;99.90;;;;;;5096264;28;20080;-86
2023/02/05 09:39:06;;;;;;;33.70;4.28;;;7.80;99.90;;;;;;5079318;28;20085;-86
2023/02/05 09:41:36;;;;;;;39.95;3.80;;;7.80;99.90;;;;;;5079025;28;20047;-86
2023/02/05 09:44:37;;;;;;;27.25;4.50;;;7.80;99.90;;;;;;5114133;28;20022;-86
2023/02/05 09:47:19;;;;;;;31.45;4.03;;;7.80;99.90;;;;;;5095908;28;20027;-86
2023/02/05 09:50:04;;;;;;;;;;;7.90;99.90;;;;;;5096305;28;20387;-86
2023/02/05 09:52:35;;;;;;;39.72;4.45;;;7.90;99.90;;;;;;5096679;28;20306;-88
2023/02/05 09:55:06;;;;;;;24.38;4.10;;;7.90;99.90;;;;;;5096448;28;20376;-88
2023/02/05 09:57:33;;;;;;;38.38;4.93;;;7.90;99.90;;;;;;5096292;28;20495;-88
2023/02/05 09:59:59;;;;;;;32.30;4.18;;;7.90;99.90;;;;;;5096346;28;20468;-88
2023/02/05 10:02:41;;;;;;;28.05;3.85;;;7.90;99.90;;;;;;5079896;28;20028;-88
2023/02/05 10:05:13;;;;;;;32.13;4.50;;;7.90;99.90;;;;;;5101340;28;20024;-88
2023/02/05 10:07:47;;;;;;;32.00;5.55;;;7.90;99.90;;;;;;5100420;28;20016;-85
2023/02/05 10:10:22;;;;;;;29.63;3.85;;;7.90;99.90;;;;;;5099768;28;20070;-85
2023/02/05 10:13:23;;;;;;;34.40;4.30;;;7.90;99.90;;;;;;5100146;28;20019;-88
2023/02/05 10:16:10;;;;;;;31.30;4.03;;;8.00;99.90;;;;;;5100040;28;20027;-88
2023/02/05 10:18:45;;;;;;;25.77;3.83;;;7.90;99.90;;;;;;5103084;28;20046;-91
2023/02/05 10:21:29;;;;;;;35.88;4.10;;;8.00;99.90;;;;;;5102806;28;20019;-92
2023/02/05 10:24:05;;;;;;;29.00;3.85;;;8.00;99.90;;;;;;5103783;28;20026;-93
2023/02/05 10:26:41;;;;;;;27.02;4.43;;;8.00;99.90;;;;;;5099538;28;20427;-87
2023/02/05 10:29:32;;;;;;;25.52;3.40;;;8.00;99.90;;;;;;5100112;28;20044;-88
2023/02/05 10:32:23;;;;;;;27.00;4.25;;;8.00;99.90;;;;;;5099639;28;20476;-88
2023/02/05 10:35:02;;;;;;;33.00;3.97;;;8.00;99.90;;;;;;5101040;28;20023;-88
2023/02/05 10:37:51;;;;;;;26.52;3.78;;;8.10;99.90;;;;;;5083287;28;20039;-88
2023/02/05 10:40:21;;;;;;;26.83;4.38;;;8.10;99.90;;;;;;5099885;28;20545;-87
2023/02/05 10:43:23;;;;;;;27.92;4.00;;;8.00;99.90;;;;;;5107737;28;20039;-86
2023/02/05 10:45:51;;;;;;;31.95;4.80;;;8.10;99.90;;;;;;5102217;28;20456;-87
2023/02/05 10:48:35;;;;;;;26.05;3.28;;;8.10;99.90;;;;;;5099024;28;20022;-85
2023/02/05 10:51:04;;;;;;;32.20;4.28;;;8.10;99.90;;;;;;5099074;28;20057;-85
2023/02/05 10:53:30;;;;;;;30.23;4.22;;;8.20;99.90;;;;;;5098852;28;20012;-85
2023/02/05 10:55:57;;;;;;;24.27;3.33;;;8.10;99.90;;;;;;5116931;28;20544;-85
2023/02/05 10:58:43;;;;;;;28.27;4.22;;;8.20;99.90;;;;;;5100212;28;20030;-88
2023/02/05 11:01:21;;;;;;;23.58;3.63;;;8.20;99.90;;;;;;5117668;28;20057;-88
2023/02/05 11:03:56;;;;;;;25.92;4.72;;;8.20;99.90;;;;;;5099565;28;20354;-88
2023/02/05 11:06:26;;;;;;;22.02;3.83;;;8.20;99.90;;;;;;5099171;28;20127;-89
2023/02/05 11:08:52;;;;;;;22.20;3.25;;;8.20;99.90;;;;;;5099640;28;20452;-88
2023/02/05 11:11:23;;;;;;;32.22;3.90;;;8.20;99.90;;;;;;5099394;28;20055;-88
2023/02/05 11:13:54;;;;;;;28.48;4.40;;;8.20;99.90;;;;;;5098555;28;20027;-88
2023/02/05 11:16:20;;;;;;;;;;;8.20;99.90;;;;;;5099284;28;20059;-86
2023/02/05 11:18:56;;;;;;;25.52;3.55;;;8.20;99.90;;;;;;5082180;28;19933;-87
2023/02/05 11:21:22;;;;;;;33.45;4.35;;;8.20;99.90;;;;;;5098723;28;20111;-87
2023/02/05 11:23:57;;;;;;;25.35;3.80;;;8.20;99.90;;;;;;5098936;28;20486;-87
2023/02/05 11:26:26;;;;;;;30.00;4.70;;;8.20;99.90;;;;;;5081572;28;20069;-87
2023/02/05 11:28:52;;;;;;;27.00;3.47;;;8.30;99.90;;;;;;5098534;28;20020;-87
2023/02/05 11:31:27;;;;;;;34.03;4.90;;;8.20;99.90;;;;;;5081786;28;20383;-89
2023/02/05 11:34:08;;;;;;;30.15;3.97;;;8.20;99.90;;;;;;5082521;28;20077;-90
2023/02/05 11:36:47;;;;;;;25.85;4.03;;;8.30;99.90;;;;;;5099806;28;20031;-93
2023/02/05 11:39:39;;;;;;;25.02;4.18;;;8.30;99.90;;;;;;5099785;28;20019;-91
2023/02/05 11:42:22;;;;;;;28.30;4.82;;;8.30;99.90;;;;;;5094873;28;20552;-89
2023/02/05 11:44:55;;;;;;;38.13;5.22;;;8.30;99.90;;;;;;5099877;28;20444;-91
2023/02/05 11:47:24;;;;;;;28.00;4.55;;;8.40;99.90;;;;;;5097830;28;20034;-88
2023/02/05 11:49:50;;;;;;;31.15;4.50;;;8.30;99.90;;;;;;5098103;28;20482;-91
2023/02/05 11:52:24;;;;;;;32.20;5.22;;;8.40;99.90;;;;;;5098127;28;20507;-92
2023/02/05 11:54:50;;;;;;;27.95;5.22;;;8.40;99.90;;;;;;5098680;28;20035;-91
2023/02/05 11:57:19;;;;;;;27.17;4.38;;;8.50;99.90;;;;;;5066179;28;20031;-93
2023/02/05 11:59:54;;;;;;;36.42;4.38;;;8.50;99.90;;;;;;5099483;28;20023;-93
2023/02/05 12:02:50;;;;;;;;;;;;;;;;;;;;;
2023/02/05 12:05:18;;;;;;;32.50;4.45;;;8.50;99.90;;;;;;5123367;28;20417;-87
2023/02/05 12:08:03;;;;;;;33.20;6.38;;;8.60;99.90;;;;;;5100545;28;20051;-86
2023/02/05 12:10:59;;;;;;;23.92;4.32;;;8.60;99.90;;;;;;5100853;28;20027;-87
2023/02/05 12:13:48;;;;;;;32.80;4.25;;;8.60;99.90;;;;;;5100155;28;20104;-87
2023/02/05 12:16:45;;;;;;;29.35;4.53;;;8.60;99.90;;;;;;5099197;28;20027;-87
2023/02/05 12:19:49;;;;;;;26.02;4.10;;;8.60;99.90;;;;;;5099025;28;20458;-88
2023/02/05 12:22:21;;;;;;;29.63;5.07;;;8.60;99.90;;;;;;5098020;28;20066;-85
2023/02/05 12:25:02;;;;;;;24.70;4.82;;;8.70;99.90;;;;;;5097796;28;20019;-84
2023/02/05 12:27:59;;;;;;;23.52;4.55;;;8.70;99.90;;;;;;5097961;28;20058;-86
2023/02/05 12:30:30;;;;;;;28.17;3.90;;;8.70;99.90;;;;;;5097396;28;20027;-84
2023/02/05 12:33:07;;;;;;;41.00;4.70;;;8.70;99.90;;;;;;5115256;28;20049;-84
2023/02/05 12:35:59;;;;;;;26.90;5.47;;;8.70;99.90;;;;;;5097316;28;20130;-85
2023/02/05 12:39:15;;;;;;;17.35;3.88;;;8.80;99.90;;;;;;5098791;28;20379;-89
2023/02/05 12:41:59;;;;;;;19.27;4.00;;;8.80;99.90;;;;;;5016454;28;20081;-88
2023/02/05 12:44:37;;;;;;;24.00;3.42;;;8.90;99.90;;;;;;5016562;28;20500;-89
2023/02/05 12:47:40;;;;;;;23.00;3.50;;;9.00;99.90;;;;;;5054434;28;20086;-88
2023/02/05 12:50:36;;;;;;;27.27;3.95;;;9.00;99.90;;;;;;5074026;28;20028;-89
2023/02/05 12:53:08;;;;;;;27.13;3.55;;;9.00;99.90;;;;;;5073689;28;20029;-89
2023/02/05 12:56:06;;;;;;;20.73;3.50;;;9.00;99.90;;;;;;5074622;28;20035;-91
2023/02/05 12:58:40;;;;;;;25.08;3.20;;;9.00;99.90;;;;;;5082372;28;20036;-90
2023/02/05 13:01:21;;;;;;;18.60;3.50;;;9.10;99.90;;;;;;5075123;28;20021;-91
2023/02/05 13:03:49;;;;;;;30.13;4.32;;;9.10;99.90;;;;;;5076295;28;20029;-91
2023/02/05 13:06:31;;;;;;;20.75;3.47;;;9.10;99.90;;;;;;5078641;28;20094;-90
2023/02/05 13:09:15;;;;;;;24.05;3.97;;;9.10;99.90;;;;;;5077300;28;20027;-91
2023/02/05 13:12:00;;;;;;;20.55;4.32;;;9.10;99.90;;;;;;5076700;28;20204;-87